RJCC/CTS METAR and TAF weather

Enter ICAO airport designator
Station Type Date Time Source
RJCC METAR 2019/04/19 10:00 UTC NOAA

RJCC 191000Z 36007KT CAVOK 04/M08 Q1011


Station Type Date Time Source
RJCC Decoded METAR 2019/04/19 10:00 UTC NOAA

Chitose Ab, Japan (RJCC) 42-48N 141-40E 30M
Apr 19, 2019 - 06:00 AM EDT / 2019.04.19 1000 UTC
Wind: from the N (360 degrees) at 8 MPH (7 KT):0
Visibility: greater than 7 mile(s):0
Temperature: 39 F (4 C)
Dew Point: 17 F (-8 C)
Relative Humidity: 41%
Pressure (altimeter): 29.85 in. Hg (1011 hPa)
ob: RJCC 191000Z 36007KT CAVOK 04/M08 Q1011
cycle: 10

Station Type Date Time Source
RJCC TAF 2019/04/19 06:31 UTC NOAA

TAF RJCC 190505Z 1906/2012 36018KT 9999 FEW015 SCT030
BECMG 1911/1913 15006KT
BECMG 1921/2000 35012KT

Example: see airport list